sensor_id;sensor_type;location;lat;lon;timestamp;pressure;altitude;pressure_sealevel;temperature;humidity
66154;BME280;52956;52.372;4.640;2022-07-29T00:01:45;101903.88;;;22.42;47.21
66154;BME280;52956;52.372;4.640;2022-07-29T00:04:11;101899.78;;;22.39;47.12
66154;BME280;52956;52.372;4.640;2022-07-29T00:06:37;101901.44;;;22.40;46.82
66154;BME280;52956;52.372;4.640;2022-07-29T00:09:02;101903.59;;;22.38;47.32
66154;BME280;52956;52.372;4.640;2022-07-29T00:11:28;101898.16;;;22.38;47.29
66154;BME280;52956;52.372;4.640;2022-07-29T00:13:53;101890.25;;;22.37;47.06
66154;BME280;52956;52.372;4.640;2022-07-29T00:16:18;101890.00;;;22.38;47.10
66154;BME280;52956;52.372;4.640;2022-07-29T00:18:44;101890.53;;;22.35;47.16
66154;BME280;52956;52.372;4.640;2022-07-29T00:21:09;101887.53;;;22.37;47.14
66154;BME280;52956;52.372;4.640;2022-07-29T00:23:35;101889.19;;;22.38;47.34
66154;BME280;52956;52.372;4.640;2022-07-29T00:26:00;101890.25;;;22.37;47.24
66154;BME280;52956;52.372;4.640;2022-07-29T00:28:26;101879.13;;;22.33;47.32
66154;BME280;52956;52.372;4.640;2022-07-29T00:30:51;101884.00;;;22.36;47.11
66154;BME280;52956;52.372;4.640;2022-07-29T00:33:16;101880.22;;;22.37;47.33
66154;BME280;52956;52.372;4.640;2022-07-29T00:35:41;101881.28;;;22.36;47.26
66154;BME280;52956;52.372;4.640;2022-07-29T00:38:11;101881.28;;;22.36;47.39
66154;BME280;52956;52.372;4.640;2022-07-29T00:40:37;101878.84;;;22.35;47.38
66154;BME280;52956;52.372;4.640;2022-07-29T00:43:02;101874.78;;;22.32;47.25
66154;BME280;52956;52.372;4.640;2022-07-29T00:45:27;101879.13;;;22.33;47.37
66154;BME280;52956;52.372;4.640;2022-07-29T00:47:54;101866.34;;;22.33;47.28
66154;BME280;52956;52.372;4.640;2022-07-29T00:50:20;101860.06;;;22.33;47.27
66154;BME280;52956;52.372;4.640;2022-07-29T00:52:45;101861.19;;;22.27;47.40
66154;BME280;52956;52.372;4.640;2022-07-29T00:55:13;101863.91;;;22.32;47.23
66154;BME280;52956;52.372;4.640;2022-07-29T00:57:40;101863.91;;;22.32;47.04
66154;BME280;52956;52.372;4.640;2022-07-29T01:00:08;101859.53;;;22.31;47.37
66154;BME280;52956;52.372;4.640;2022-07-29T01:02:34;101854.91;;;22.31;47.29
66154;BME280;52956;52.372;4.640;2022-07-29T01:05:01;101864.16;;;22.30;47.31
66154;BME280;52956;52.372;4.640;2022-07-29T01:07:27;101856.81;;;22.31;47.57
66154;BME280;52956;52.372;4.640;2022-07-29T01:09:54;101862.53;;;22.29;47.26
66154;BME280;52956;52.372;4.640;2022-07-29T01:12:24;101859.00;;;22.29;47.29
66154;BME280;52956;52.372;4.640;2022-07-29T01:14:50;101864.44;;;22.29;47.14
66154;BME280;52956;52.372;4.640;2022-07-29T01:20:07;101859.00;;;22.29;47.41
66154;BME280;52956;52.372;4.640;2022-07-29T01:31:06;101851.41;;;22.26;47.42
66154;BME280;52956;52.372;4.640;2022-07-29T01:33:36;101847.84;;;22.25;47.29
66154;BME280;52956;52.372;4.640;2022-07-29T01:36:35;101845.97;;;22.26;47.35
66154;BME280;52956;52.372;4.640;2022-07-29T01:39:06;101844.59;;;22.23;47.41
66154;BME280;52956;52.372;4.640;2022-07-29T01:41:36;101844.59;;;22.23;47.54
66154;BME280;52956;52.372;4.640;2022-07-29T01:44:27;101841.06;;;22.23;47.49
66154;BME280;52956;52.372;4.640;2022-07-29T01:46:56;101842.16;;;22.22;47.43
66154;BME280;52956;52.372;4.640;2022-07-29T01:49:27;101838.66;;;22.21;47.43
66154;BME280;52956;52.372;4.640;2022-07-29T01:51:58;101834.31;;;22.15;47.41
66154;BME280;52956;52.372;4.640;2022-07-29T01:54:34;101836.72;;;22.22;47.41
66154;BME280;52956;52.372;4.640;2022-07-29T01:57:01;101833.50;;;22.20;47.38
66154;BME280;52956;52.372;4.640;2022-07-29T01:59:29;101827.22;;;22.19;47.29
66154;BME280;52956;52.372;4.640;2022-07-29T02:01:57;101835.09;;;22.21;47.43
66154;BME280;52956;52.372;4.640;2022-07-29T02:04:23;101830.47;;;22.21;47.60
66154;BME280;52956;52.372;4.640;2022-07-29T02:06:52;101826.41;;;22.19;47.73
66154;BME280;52956;52.372;4.640;2022-07-29T02:09:20;101819.34;;;22.17;47.44
66154;BME280;52956;52.372;4.640;2022-07-29T02:11:52;101824.78;;;22.17;47.43
66154;BME280;52956;52.372;4.640;2022-07-29T02:14:20;101822.34;;;22.16;47.83
66154;BME280;52956;52.372;4.640;2022-07-29T02:16:48;101818.53;;;22.17;47.45
66154;BME280;52956;52.372;4.640;2022-07-29T02:19:17;101809.03;;;22.09;47.63
66154;BME280;52956;52.372;4.640;2022-07-29T02:21:44;101812.25;;;22.16;47.51
66154;BME280;52956;52.372;4.640;2022-07-29T02:24:11;101812.25;;;22.16;47.59
66154;BME280;52956;52.372;4.640;2022-07-29T02:26:39;101815.00;;;22.16;47.52
66154;BME280;52956;52.372;4.640;2022-07-29T02:29:06;101816.06;;;22.15;47.69
66154;BME280;52956;52.372;4.640;2022-07-29T02:31:34;101815.56;;;22.13;47.56
66154;BME280;52956;52.372;4.640;2022-07-29T02:34:02;101810.38;;;22.12;47.49
66154;BME280;52956;52.372;4.640;2022-07-29T02:36:30;101812.00;;;22.13;47.57
66154;BME280;52956;52.372;4.640;2022-07-29T02:38:57;101810.91;;;22.14;47.61
66154;BME280;52956;52.372;4.640;2022-07-29T02:44:17;101815.56;;;22.13;47.58
66154;BME280;52956;52.372;4.640;2022-07-29T02:46:48;101809.28;;;22.13;47.47
66154;BME280;52956;52.372;4.640;2022-07-29T02:49:37;101811.22;;;22.12;47.49
66154;BME280;52956;52.372;4.640;2022-07-29T02:52:08;101810.66;;;22.10;47.66
66154;BME280;52956;52.372;4.640;2022-07-29T02:54:41;101810.66;;;22.10;47.73
66154;BME280;52956;52.372;4.640;2022-07-29T02:57:38;101816.13;;;22.10;47.59
66154;BME280;52956;52.372;4.640;2022-07-29T03:00:07;101806.31;;;22.09;47.77
66154;BME280;52956;52.372;4.640;2022-07-29T03:02:36;101802.78;;;22.09;47.54
66154;BME280;52956;52.372;4.640;2022-07-29T03:05:03;101804.72;;;22.08;47.63
66154;BME280;52956;52.372;4.640;2022-07-29T03:07:29;101800.88;;;22.09;47.84
66154;BME280;52956;52.372;4.640;2022-07-29T03:09:55;101799.28;;;22.08;47.60
66154;BME280;52956;52.372;4.640;2022-07-29T03:12:22;101789.78;;;22.00;47.69
66154;BME280;52956;52.372;4.640;2022-07-29T03:14:48;101801.44;;;22.06;47.72
66154;BME280;52956;52.372;4.640;2022-07-29T03:17:14;101795.19;;;22.06;47.75
66154;BME280;52956;52.372;4.640;2022-07-29T03:19:40;101798.72;;;22.06;47.75
66154;BME280;52956;52.372;4.640;2022-07-29T03:22:06;101805.25;;;22.05;47.67
66154;BME280;52956;52.372;4.640;2022-07-29T03:24:34;101799.28;;;22.03;47.74
66154;BME280;52956;52.372;4.640;2022-07-29T03:27:00;101802.53;;;22.05;47.76
66154;BME280;52956;52.372;4.640;2022-07-29T03:29:26;101801.75;;;22.05;47.56
66154;BME280;52956;52.372;4.640;2022-07-29T03:31:52;101793.84;;;22.03;47.55
66154;BME280;52956;52.372;4.640;2022-07-29T03:34:17;101801.19;;;22.03;47.53
66154;BME280;52956;52.372;4.640;2022-07-29T03:36:42;101804.22;;;22.01;47.88
66154;BME280;52956;52.372;4.640;2022-07-29T03:39:09;101801.19;;;22.03;47.76
66154;BME280;52956;52.372;4.640;2022-07-29T03:41:37;101791.41;;;22.02;47.79
66154;BME280;52956;52.372;4.640;2022-07-29T03:44:05;101788.69;;;22.02;47.93
66154;BME280;52956;52.372;4.640;2022-07-29T03:46:32;101791.41;;;22.02;47.83
66154;BME280;52956;52.372;4.640;2022-07-29T03:49:01;101784.34;;;22.00;47.59
66154;BME280;52956;52.372;4.640;2022-07-29T03:51:28;101782.44;;;22.01;47.76
66154;BME280;52956;52.372;4.640;2022-07-29T03:53:54;101779.72;;;22.01;47.71
66154;BME280;52956;52.372;4.640;2022-07-29T03:56:21;101782.69;;;21.99;47.78
66154;BME280;52956;52.372;4.640;2022-07-29T03:58:49;101780.28;;;21.98;47.81
66154;BME280;52956;52.372;4.640;2022-07-29T04:01:15;101781.91;;;21.99;47.96
66154;BME280;52956;52.372;4.640;2022-07-29T04:03:43;101779.19;;;21.99;47.87
66154;BME280;52956;52.372;4.640;2022-07-29T04:06:10;101794.72;;;21.98;47.78
66154;BME280;52956;52.372;4.640;2022-07-29T04:08:36;101788.72;;;21.96;47.74
66154;BME280;52956;52.372;4.640;2022-07-29T04:11:02;101789.53;;;21.97;47.94
66154;BME280;52956;52.372;4.640;2022-07-29T04:13:28;101791.44;;;21.96;47.65
66154;BME280;52956;52.372;4.640;2022-07-29T04:15:53;101789.53;;;21.97;47.92
66154;BME280;52956;52.372;4.640;2022-07-29T04:18:19;101792.25;;;21.97;47.80
66154;BME280;52956;52.372;4.640;2022-07-29T04:20:44;101781.66;;;21.95;47.97
66154;BME280;52956;52.372;4.640;2022-07-29T04:23:10;101780.84;;;21.95;47.74
66154;BME280;52956;52.372;4.640;2022-07-29T04:25:39;101784.38;;;21.95;47.86
66154;BME280;52956;52.372;4.640;2022-07-29T04:28:05;101781.34;;;21.97;47.87
66154;BME280;52956;52.372;4.640;2022-07-29T04:30:31;101786.28;;;21.95;47.77
66154;BME280;52956;52.372;4.640;2022-07-29T04:32:57;101788.19;;;21.94;47.66
66154;BME280;52956;52.372;4.640;2022-07-29T04:35:23;101783.59;;;21.90;47.70
66154;BME280;52956;52.372;4.640;2022-07-29T04:37:48;101783.59;;;21.90;47.79
66154;BME280;52956;52.372;4.640;2022-07-29T04:40:14;101785.75;;;21.93;47.82
66154;BME280;52956;52.372;4.640;2022-07-29T04:42:39;101781.13;;;21.93;47.80
66154;BME280;52956;52.372;4.640;2022-07-29T04:45:05;101783.84;;;21.93;47.76
66154;BME280;52956;52.372;4.640;2022-07-29T04:47:31;101785.75;;;21.93;48.05
66154;BME280;52956;52.372;4.640;2022-07-29T04:49:56;101789.28;;;21.93;47.67
66154;BME280;52956;52.372;4.640;2022-07-29T04:52:22;101786.56;;;21.93;47.90
66154;BME280;52956;52.372;4.640;2022-07-29T04:54:48;101790.09;;;21.94;48.11
66154;BME280;52956;52.372;4.640;2022-07-29T04:57:13;101787.38;;;21.94;47.88
66154;BME280;52956;52.372;4.640;2022-07-29T04:59:39;101788.47;;;21.93;48.10
66154;BME280;52956;52.372;4.640;2022-07-29T05:02:04;101781.69;;;21.90;48.08
66154;BME280;52956;52.372;4.640;2022-07-29T05:04:29;101790.19;;;21.73;49.41
66154;BME280;52956;52.372;4.640;2022-07-29T05:06:55;101791.63;;;21.60;49.72
66154;BME280;52956;52.372;4.640;2022-07-29T05:09:20;101788.34;;;21.58;49.60
66154;BME280;52956;52.372;4.640;2022-07-29T05:11:45;101791.34;;;21.62;49.24
66154;BME280;52956;52.372;4.640;2022-07-29T05:14:11;101779.13;;;21.59;49.04
66154;BME280;52956;52.372;4.640;2022-07-29T05:16:36;101781.56;;;21.66;48.76
66154;BME280;52956;52.372;4.640;2022-07-29T05:19:02;101780.19;;;21.68;48.82
66154;BME280;52956;52.372;4.640;2022-07-29T05:21:28;101783.41;;;21.71;48.93
66154;BME280;52956;52.372;4.640;2022-07-29T05:23:53;101794.03;;;21.72;49.46
66154;BME280;52956;52.372;4.640;2022-07-29T05:26:18;101788.31;;;21.74;49.30
66154;BME280;52956;52.372;4.640;2022-07-29T05:28:43;101786.94;;;21.76;49.04
66154;BME280;52956;52.372;4.640;2022-07-29T05:31:09;101789.38;;;21.78;49.52
66154;BME280;52956;52.372;4.640;2022-07-29T05:33:34;101784.75;;;21.78;49.57
66154;BME280;52956;52.372;4.640;2022-07-29T05:35:59;101784.47;;;21.80;49.63
66154;BME280;52956;52.372;4.640;2022-07-29T05:38:25;101782.53;;;21.80;49.60
66154;BME280;52956;52.372;4.640;2022-07-29T05:40:50;101779.56;;;21.77;49.61
66154;BME280;52956;52.372;4.640;2022-07-29T05:43:15;101779.03;;;21.80;49.84
66154;BME280;52956;52.372;4.640;2022-07-29T05:45:40;101791.53;;;21.81;49.56
66154;BME280;52956;52.372;4.640;2022-07-29T05:48:06;101798.31;;;21.83;49.71
66154;BME280;52956;52.372;4.640;2022-07-29T05:50:31;101803.75;;;21.83;49.46
66154;BME280;52956;52.372;4.640;2022-07-29T05:52:57;101802.94;;;21.83;49.86
66154;BME280;52956;52.372;4.640;2022-07-29T05:55:22;101796.97;;;21.81;49.72
66154;BME280;52956;52.372;4.640;2022-07-29T05:57:47;101800.22;;;21.83;50.07
66154;BME280;52956;52.372;4.640;2022-07-29T06:00:13;101803.75;;;21.83;49.82
66154;BME280;52956;52.372;4.640;2022-07-29T06:02:38;101801.31;;;21.82;49.75
66154;BME280;52956;52.372;4.640;2022-07-29T06:05:04;101797.78;;;21.81;50.27
66154;BME280;52956;52.372;4.640;2022-07-29T06:07:29;101809.19;;;21.83;49.98
66154;BME280;52956;52.372;4.640;2022-07-29T06:09:55;101803.47;;;21.85;50.13
66154;BME280;52956;52.372;4.640;2022-07-29T06:12:21;101801.03;;;21.83;49.71
66154;BME280;52956;52.372;4.640;2022-07-29T06:14:46;101808.91;;;21.85;49.90
66154;BME280;52956;52.372;4.640;2022-07-29T06:17:11;101783.16;;;21.67;49.88
66154;BME280;52956;52.372;4.640;2022-07-29T06:19:37;101805.09;;;21.86;49.82
66154;BME280;52956;52.372;4.640;2022-07-29T06:22:03;101807.25;;;21.89;49.78
66154;BME280;52956;52.372;4.640;2022-07-29T06:24:28;101812.69;;;21.89;49.98
66154;BME280;52956;52.372;4.640;2022-07-29T06:26:54;101804.53;;;21.89;49.82
66154;BME280;52956;52.372;4.640;2022-07-29T06:29:19;101801.53;;;21.91;49.84
66154;BME280;52956;52.372;4.640;2022-07-29T06:31:45;101811.59;;;21.90;49.80
66154;BME280;52956;52.372;4.640;2022-07-29T06:34:10;101809.44;;;21.92;49.64
66154;BME280;52956;52.372;4.640;2022-07-29T06:36:36;101811.06;;;21.93;49.62
66154;BME280;52956;52.372;4.640;2022-07-29T06:39:05;101810.22;;;21.93;49.96
66154;BME280;52956;52.372;4.640;2022-07-29T06:41:31;101820.03;;;21.94;49.67
66154;BME280;52956;52.372;4.640;2022-07-29T06:43:56;101818.94;;;21.95;49.74
66154;BME280;52956;52.372;4.640;2022-07-29T06:46:21;101817.84;;;21.96;49.85
66154;BME280;52956;52.372;4.640;2022-07-29T06:48:47;101811.28;;;21.97;50.01
66154;BME280;52956;52.372;4.640;2022-07-29T06:51:12;101806.97;;;21.96;50.05
66154;BME280;52956;52.372;4.640;2022-07-29T06:53:39;101814.84;;;21.97;49.60
66154;BME280;52956;52.372;4.640;2022-07-29T06:56:06;101812.91;;;21.98;49.75
66154;BME280;52956;52.372;4.640;2022-07-29T06:58:33;101816.47;;;21.98;49.51
66154;BME280;52956;52.372;4.640;2022-07-29T07:01:02;101827.88;;;22.00;49.78
66154;BME280;52956;52.372;4.640;2022-07-29T07:03:27;101825.16;;;22.00;49.78
66154;BME280;52956;52.372;4.640;2022-07-29T07:05:53;101830.59;;;22.00;49.70
66154;BME280;52956;52.372;4.640;2022-07-29T07:08:19;101833.31;;;22.00;49.47
66154;BME280;52956;52.372;4.640;2022-07-29T07:10:46;101825.97;;;22.01;49.46
66154;BME280;52956;52.372;4.640;2022-07-29T07:13:11;101827.06;;;22.00;49.57
66154;BME280;52956;52.372;4.640;2022-07-29T07:15:37;101831.41;;;22.01;49.47
66154;BME280;52956;52.372;4.640;2022-07-29T07:18:04;101834.13;;;22.01;49.28
66154;BME280;52956;52.372;4.640;2022-07-29T07:20:29;101834.69;;;21.98;49.21
66154;BME280;52956;52.372;4.640;2022-07-29T07:22:54;101838.50;;;22.02;49.14
66154;BME280;52956;52.372;4.640;2022-07-29T07:25:20;101838.50;;;22.02;49.21
66154;BME280;52956;52.372;4.640;2022-07-29T07:27:45;101842.00;;;22.03;49.36
66154;BME280;52956;52.372;4.640;2022-07-29T07:30:11;101830.31;;;22.02;49.33
66154;BME280;52956;52.372;4.640;2022-07-29T07:32:37;101833.84;;;22.03;49.22
66154;BME280;52956;52.372;4.640;2022-07-29T07:35:04;101831.94;;;22.03;49.20
66154;BME280;52956;52.372;4.640;2022-07-29T07:37:29;101824.63;;;21.98;49.41
66154;BME280;52956;52.372;4.640;2022-07-29T07:39:55;101834.38;;;22.05;49.47
66154;BME280;52956;52.372;4.640;2022-07-29T07:42:20;101832.47;;;22.05;49.33
66154;BME280;52956;52.372;4.640;2022-07-29T07:44:45;101835.19;;;22.05;49.46
66154;BME280;52956;52.372;4.640;2022-07-29T07:47:16;101830.84;;;22.04;49.78
66154;BME280;52956;52.372;4.640;2022-07-29T07:49:48;101813.47;;;22.00;49.98
66154;BME280;52956;52.372;4.640;2022-07-29T07:52:16;101820.50;;;22.06;49.61
66154;BME280;52956;52.372;4.640;2022-07-29T07:54:41;101824.56;;;22.09;49.55
66154;BME280;52956;52.372;4.640;2022-07-29T07:57:08;101822.09;;;22.12;49.34
66154;BME280;52956;52.372;4.640;2022-07-29T07:59:33;101825.63;;;22.13;49.30
66154;BME280;52956;52.372;4.640;2022-07-29T08:01:58;101828.34;;;22.13;49.14
66154;BME280;52956;52.372;4.640;2022-07-29T08:04:25;101835.13;;;22.15;49.43
66154;BME280;52956;52.372;4.640;2022-07-29T08:06:50;101835.13;;;22.15;49.27
66154;BME280;52956;52.372;4.640;2022-07-29T08:09:16;101841.13;;;22.17;49.22
66154;BME280;52956;52.372;4.640;2022-07-29T08:11:41;101829.94;;;22.19;49.10
66154;BME280;52956;52.372;4.640;2022-07-29T08:14:06;101831.28;;;22.22;49.09
66154;BME280;52956;52.372;4.640;2022-07-29T08:16:31;101840.25;;;22.27;49.38
66154;BME280;52956;52.372;4.640;2022-07-29T08:18:57;101840.50;;;22.31;49.27
66154;BME280;52956;52.372;4.640;2022-07-29T08:21:23;101836.94;;;22.30;49.18
66154;BME280;52956;52.372;4.640;2022-07-29T08:23:50;101826.59;;;22.32;49.29
66154;BME280;52956;52.372;4.640;2022-07-29T08:26:19;101835.28;;;22.40;49.40
66154;BME280;52956;52.372;4.640;2022-07-29T08:28:45;101830.66;;;22.40;49.13
66154;BME280;52956;52.372;4.640;2022-07-29T08:31:14;101843.41;;;22.45;49.25
66154;BME280;52956;52.372;4.640;2022-07-29T08:33:39;101834.66;;;22.48;49.34
66154;BME280;52956;52.372;4.640;2022-07-29T08:36:05;101834.66;;;22.48;49.61
66154;BME280;52956;52.372;4.640;2022-07-29T08:38:32;101829.22;;;22.48;49.43
66154;BME280;52956;52.372;4.640;2022-07-29T08:40:58;101846.88;;;22.56;49.49
66154;BME280;52956;52.372;4.640;2022-07-29T08:43:25;101840.84;;;22.59;49.30
66154;BME280;52956;52.372;4.640;2022-07-29T08:45:51;101835.94;;;22.61;49.19
66154;BME280;52956;52.372;4.640;2022-07-29T08:48:21;101840.56;;;22.60;49.05
66154;BME280;52956;52.372;4.640;2022-07-29T08:50:48;101835.94;;;22.61;49.28
66154;BME280;52956;52.372;4.640;2022-07-29T08:53:16;101843.25;;;22.65;49.02
66154;BME280;52956;52.372;4.640;2022-07-29T08:55:44;101840.53;;;22.65;49.01
66154;BME280;52956;52.372;4.640;2022-07-29T08:58:10;101851.72;;;22.64;49.11
66154;BME280;52956;52.372;4.640;2022-07-29T09:00:38;101852.56;;;22.59;49.69
66154;BME280;52956;52.372;4.640;2022-07-29T09:03:06;101846.00;;;22.60;49.89
66154;BME280;52956;52.372;4.640;2022-07-29T09:05:33;101849.56;;;22.61;49.53
66154;BME280;52956;52.372;4.640;2022-07-29T09:07:59;101845.50;;;22.58;49.41
66154;BME280;52956;52.372;4.640;2022-07-29T09:10:25;101842.00;;;22.53;49.68
66154;BME280;52956;52.372;4.640;2022-07-29T09:12:51;101843.63;;;22.54;49.77
66154;BME280;52956;52.372;4.640;2022-07-29T09:15:17;101843.63;;;22.54;49.70
66154;BME280;52956;52.372;4.640;2022-07-29T09:17:48;101843.09;;;22.52;49.59
66154;BME280;52956;52.372;4.640;2022-07-29T09:20:19;101846.91;;;22.51;49.54
66154;BME280;52956;52.372;4.640;2022-07-29T09:22:45;101842.28;;;22.51;49.74
66154;BME280;52956;52.372;4.640;2022-07-29T09:25:37;101843.38;;;22.50;49.73
66154;BME280;52956;52.372;4.640;2022-07-29T09:28:13;101840.13;;;22.48;49.53
66154;BME280;52956;52.372;4.640;2022-07-29T09:30:52;101848.03;;;22.50;49.67
66154;BME280;52956;52.372;4.640;2022-07-29T09:33:21;101839.31;;;22.47;49.72
66154;BME280;52956;52.372;4.640;2022-07-29T09:35:59;101839.84;;;22.50;49.86
66154;BME280;52956;52.372;4.640;2022-07-29T09:38:24;101846.66;;;22.47;49.85
66154;BME280;52956;52.372;4.640;2022-07-29T09:41:00;101850.75;;;22.50;49.97
66154;BME280;52956;52.372;4.640;2022-07-29T09:43:27;101844.50;;;22.44;50.49
66154;BME280;52956;52.372;4.640;2022-07-29T09:45:52;101847.19;;;22.49;50.03
66154;BME280;52956;52.372;4.640;2022-07-29T09:48:24;101844.75;;;22.47;50.20
66154;BME280;52956;52.372;4.640;2022-07-29T09:50:51;101837.38;;;22.48;50.36
66154;BME280;52956;52.372;4.640;2022-07-29T09:53:34;101836.28;;;22.49;50.32
66154;BME280;52956;52.372;4.640;2022-07-29T09:56:00;101838.72;;;22.51;49.48
66154;BME280;52956;52.372;4.640;2022-07-29T09:58:26;101843.66;;;22.48;49.77
66154;BME280;52956;52.372;4.640;2022-07-29T10:00:52;101837.13;;;22.50;50.31
66154;BME280;52956;52.372;4.640;2022-07-29T10:03:18;101833.81;;;22.53;49.91
66154;BME280;52956;52.372;4.640;2022-07-29T10:05:45;101832.72;;;22.54;49.62
66154;BME280;52956;52.372;4.640;2022-07-29T10:08:11;101835.16;;;22.55;49.69
66154;BME280;52956;52.372;4.640;2022-07-29T10:10:41;101837.34;;;22.58;49.75
66154;BME280;52956;52.372;4.640;2022-07-29T10:13:09;101826.19;;;22.55;49.55
66154;BME280;52956;52.372;4.640;2022-07-29T10:15:37;101830.50;;;22.61;49.41
66154;BME280;52956;52.372;4.640;2022-07-29T10:18:06;101830.50;;;22.61;49.20
66154;BME280;52956;52.372;4.640;2022-07-29T10:20:32;101837.03;;;22.60;48.96
66154;BME280;52956;52.372;4.640;2022-07-29T10:22:58;101836.75;;;22.61;49.00
66154;BME280;52956;52.372;4.640;2022-07-29T10:25:24;101833.78;;;22.58;49.04
66154;BME280;52956;52.372;4.640;2022-07-29T10:27:51;101841.91;;;22.63;48.69
66154;BME280;52956;52.372;4.640;2022-07-29T10:30:17;101837.84;;;22.60;48.72
66154;BME280;52956;52.372;4.640;2022-07-29T10:42:02;101832.09;;;22.67;48.68
66154;BME280;52956;52.372;4.640;2022-07-29T10:44:29;101835.31;;;22.69;48.80
66154;BME280;52956;52.372;4.640;2022-07-29T10:46:55;101834.81;;;22.67;48.85
66154;BME280;52956;52.372;4.640;2022-07-29T10:49:27;101844.03;;;22.71;48.70
66154;BME280;52956;52.372;4.640;2022-07-29T10:52:07;101834.75;;;22.72;48.67
66154;BME280;52956;52.372;4.640;2022-07-29T10:59:49;101826.78;;;22.81;48.73
66154;BME280;52956;52.372;4.640;2022-07-29T11:05:19;101831.94;;;22.83;49.05
66154;BME280;52956;52.372;4.640;2022-07-29T11:08:18;101825.09;;;22.85;48.90
66154;BME280;52956;52.372;4.640;2022-07-29T11:10:45;101828.38;;;22.87;49.10
66154;BME280;52956;52.372;4.640;2022-07-29T11:13:10;101826.97;;;22.90;49.26
66154;BME280;52956;52.372;4.640;2022-07-29T11:15:55;101826.41;;;22.93;49.47
66154;BME280;52956;52.372;4.640;2022-07-29T11:18:21;101826.94;;;22.95;49.57
66154;BME280;52956;52.372;4.640;2022-07-29T11:20:53;101830.19;;;22.97;49.49
66154;BME280;52956;52.372;4.640;2022-07-29T11:31:32;101816.97;;;23.09;49.09
66154;BME280;52956;52.372;4.640;2022-07-29T11:34:28;101828.09;;;23.13;48.99
66154;BME280;52956;52.372;4.640;2022-07-29T11:45:12;101816.91;;;23.20;48.86
66154;BME280;52956;52.372;4.640;2022-07-29T11:47:51;101813.09;;;23.21;49.00
66154;BME280;52956;52.372;4.640;2022-07-29T11:50:27;101816.59;;;23.21;49.08
66154;BME280;52956;52.372;4.640;2022-07-29T11:52:53;101816.31;;;23.23;49.24
66154;BME280;52956;52.372;4.640;2022-07-29T11:55:21;101817.94;;;23.24;49.02
66154;BME280;52956;52.372;4.640;2022-07-29T11:57:53;101823.41;;;23.24;48.92
66154;BME280;52956;52.372;4.640;2022-07-29T12:00:23;101820.38;;;23.25;48.88
66154;BME280;52956;52.372;4.640;2022-07-29T12:02:49;101818.97;;;23.28;48.79
66154;BME280;52956;52.372;4.640;2022-07-29T12:05:14;101818.47;;;23.26;48.96
66154;BME280;52956;52.372;4.640;2022-07-29T12:07:40;101816.00;;;23.29;49.03
66154;BME280;52956;52.372;4.640;2022-07-29T12:10:07;101809.69;;;23.29;49.09
66154;BME280;52956;52.372;4.640;2022-07-29T12:12:34;101811.34;;;23.30;49.02
66154;BME280;52956;52.372;4.640;2022-07-29T12:15:17;101809.41;;;23.31;48.96
66154;BME280;52956;52.372;4.640;2022-07-29T12:17:44;101812.13;;;23.31;49.06
66154;BME280;52956;52.372;4.640;2022-07-29T12:20:10;101813.75;;;23.32;49.21
66154;BME280;52956;52.372;4.640;2022-07-29T12:22:39;101816.19;;;23.33;49.06
66154;BME280;52956;52.372;4.640;2022-07-29T12:25:13;101823.28;;;23.34;48.83
66154;BME280;52956;52.372;4.640;2022-07-29T12:27:43;101817.81;;;23.34;48.70
66154;BME280;52956;52.372;4.640;2022-07-29T12:30:15;101815.38;;;23.33;49.00
66154;BME280;52956;52.372;4.640;2022-07-29T12:32:44;101812.91;;;23.36;49.14
66154;BME280;52956;52.372;4.640;2022-07-29T12:35:20;101817.75;;;23.39;49.19
66154;BME280;52956;52.372;4.640;2022-07-29T12:37:47;101812.03;;;23.41;49.58
66154;BME280;52956;52.372;4.640;2022-07-29T12:40:18;101807.91;;;23.43;49.52
66154;BME280;52956;52.372;4.640;2022-07-29T12:43:06;101806.22;;;23.48;49.78
66154;BME280;52956;52.372;4.640;2022-07-29T12:45:32;101812.22;;;23.50;50.16
66154;BME280;52956;52.372;4.640;2022-07-29T12:47:57;101815.97;;;23.54;49.81
66154;BME280;52956;52.372;4.640;2022-07-29T12:50:23;101813.47;;;23.57;50.32
66154;BME280;52956;52.372;4.640;2022-07-29T12:52:49;101804.47;;;23.57;50.23
66154;BME280;52956;52.372;4.640;2022-07-29T12:55:14;101804.41;;;23.62;50.47
66154;BME280;52956;52.372;4.640;2022-07-29T12:57:47;101811.47;;;23.63;49.99
66154;BME280;52956;52.372;4.640;2022-07-29T13:00:14;101808.72;;;23.68;50.09
66154;BME280;52956;52.372;4.640;2022-07-29T13:02:41;101805.38;;;23.71;49.72
66154;BME280;52956;52.372;4.640;2022-07-29T13:05:08;101802.66;;;23.71;49.67
66154;BME280;52956;52.372;4.640;2022-07-29T13:07:34;101808.03;;;23.76;49.58
66154;BME280;52956;52.372;4.640;2022-07-29T13:10:14;101801.19;;;23.79;49.41
66154;BME280;52956;52.372;4.640;2022-07-29T13:13:12;101793.53;;;23.81;48.94
66154;BME280;52956;52.372;4.640;2022-07-29T13:15:39;101793.22;;;23.83;49.26
66154;BME280;52956;52.372;4.640;2022-07-29T13:18:34;101807.38;;;23.85;49.17
66154;BME280;52956;52.372;4.640;2022-07-29T13:21:12;101806.28;;;23.86;49.05
66154;BME280;52956;52.372;4.640;2022-07-29T13:23:38;101807.88;;;23.87;48.99
66154;BME280;52956;52.372;4.640;2022-07-29T13:26:08;101800.31;;;23.84;49.01
66154;BME280;52956;52.372;4.640;2022-07-29T13:28:34;101805.16;;;23.87;48.84
66154;BME280;52956;52.372;4.640;2022-07-29T13:31:00;101805.16;;;23.87;49.04
66154;BME280;52956;52.372;4.640;2022-07-29T13:33:25;101802.44;;;23.87;48.66
66154;BME280;52956;52.372;4.640;2022-07-29T13:35:50;101794.25;;;23.87;48.70
66154;BME280;52956;52.372;4.640;2022-07-29T13:38:16;101796.19;;;23.86;48.91
66154;BME280;52956;52.372;4.640;2022-07-29T13:40:41;101802.16;;;23.88;49.18
66154;BME280;52956;52.372;4.640;2022-07-29T13:43:09;101785.56;;;23.85;49.42